Sunset Colony, South Dakota
Current Conditions -  °F | °C
As of 1:35 AM on Saturday 29 Nov 2014 (Local Time) from KGWR Reporting Station
Clear Clear  
Wind Chill: -11°   Ceiling: Unl
Heat Index: -6°   Visibility: 10mi
Dew Point: -7°   Wind: 7mph
Humidity: 93%   Direction: 130°SE
Pressure: 29.48"   Gusts: NA
Location:  45.8144°N, 97.7089°W
Report Text: KGWR 290735Z AUTO 13006KT 10SM CLR M06/M07 A2948 RMK A01 P000
Loading
Personal Weather Stations






























Interactive Weather Map New forecast layout! Learn more

10-Day Weather Forecast

Advertisements
Track Severe Weather on mobile